createdAt,value
2017-09-01T00:02:16.518Z,30.22
2017-09-01T00:04:46.735Z,30.24
2017-09-01T00:07:16.880Z,30.25
2017-09-01T00:09:47.866Z,30.24
2017-09-01T00:12:17.552Z,30.23
2017-09-01T00:14:47.657Z,29.94
2017-09-01T00:17:17.685Z,30.23
2017-09-01T00:19:47.656Z,30.22
2017-09-01T00:22:18.508Z,30.23
2017-09-01T00:24:48.809Z,30.24
2017-09-01T00:27:18.743Z,30.24
2017-09-01T00:29:49.037Z,30.24
2017-09-01T00:32:19.489Z,30.25
2017-09-01T00:34:50.406Z,30.25
2017-09-01T00:37:21.047Z,30.24
2017-09-01T00:39:51.265Z,30.23
2017-09-01T00:42:21.660Z,30.24
2017-09-01T00:44:52.048Z,30.23
2017-09-01T00:47:22.174Z,30.24
2017-09-01T00:49:52.761Z,30.24
2017-09-01T00:52:23.174Z,30.25
2017-09-01T00:54:53.391Z,30.23
2017-09-01T00:57:23.414Z,30.25
2017-09-01T00:59:53.855Z,30.25
2017-09-01T01:02:23.778Z,30.24
2017-09-01T01:05:01.563Z,30.25
2017-09-01T01:07:32.430Z,30.25
2017-09-01T01:10:03.776Z,30.25
2017-09-01T01:12:33.808Z,30.26
2017-09-01T01:15:04.481Z,29.66
2017-09-01T01:17:34.474Z,30.29
2017-09-01T01:20:04.705Z,30.29
2017-09-01T01:22:34.985Z,30.26
2017-09-01T01:25:06.316Z,30.26
2017-09-01T01:27:37.003Z,30.26
2017-09-01T01:30:07.331Z,30.27
2017-09-01T01:32:37.319Z,30.16
2017-09-01T01:35:07.719Z,30.27
2017-09-01T01:37:38.391Z,30.27
2017-09-01T01:40:08.744Z,30.27
2017-09-01T01:42:39.168Z,30.27
2017-09-01T01:45:09.658Z,30.17
2017-09-01T01:47:39.818Z,30.23
2017-09-01T01:50:11.853Z,30.27
2017-09-01T01:52:42.077Z,30.25
2017-09-01T01:55:12.473Z,30.26
2017-09-01T01:57:42.444Z,30.26
2017-09-01T02:00:12.394Z,30.26
2017-09-01T02:02:42.554Z,30.26
2017-09-01T02:05:12.505Z,30.16
2017-09-01T02:07:42.608Z,30.27
2017-09-01T02:10:12.696Z,30.26
2017-09-01T02:12:42.778Z,30.26
2017-09-01T02:15:12.736Z,30.27
2017-09-01T02:17:43.561Z,30.26
2017-09-01T02:20:13.725Z,30.25
2017-09-01T02:22:43.716Z,30.25
2017-09-01T02:25:14.428Z,30.25
2017-09-01T02:27:44.679Z,30.25
2017-09-01T02:30:14.685Z,30.23
2017-09-01T02:32:45.418Z,30.26
2017-09-01T02:35:15.182Z,30.26
2017-09-01T02:37:45.766Z,30.26
2017-09-01T02:40:16.321Z,30.26
2017-09-01T02:42:48.079Z,30.26
2017-09-01T02:45:18.935Z,30.26
2017-09-01T02:47:49.593Z,30.13
2017-09-01T02:50:20.623Z,30.25
2017-09-01T02:52:51.383Z,30.25
2017-09-01T02:55:21.685Z,30.16
2017-09-01T02:57:52.750Z,30.25
2017-09-01T03:00:25.022Z,30.26
2017-09-01T03:02:55.524Z,30.26
2017-09-01T03:05:25.555Z,30.26
2017-09-01T03:07:56.304Z,30.27
2017-09-01T03:10:26.664Z,30.28
2017-09-01T03:12:56.793Z,30.27
2017-09-01T03:15:27.353Z,30.26
2017-09-01T03:18:03.016Z,30.26
2017-09-01T03:20:34.939Z,30.26
2017-09-01T03:23:05.756Z,30.26
2017-09-01T03:25:37.181Z,29.99
2017-09-01T03:28:09.470Z,30.26
2017-09-01T03:30:40.575Z,30.18
2017-09-01T03:33:11.791Z,30.28
2017-09-01T03:35:42.207Z,30.29
2017-09-01T03:38:12.551Z,29.96
2017-09-01T03:40:42.745Z,30.28
2017-09-01T03:43:14.459Z,30.28
2017-09-01T03:45:44.549Z,30.16
2017-09-01T03:48:15.495Z,30.26
2017-09-01T03:50:45.643Z,30.25
2017-09-01T03:53:17.191Z,30.05
2017-09-01T03:55:47.397Z,30.26
2017-09-01T03:58:17.429Z,30.24
2017-09-01T04:00:47.778Z,30.25
2017-09-01T04:03:18.252Z,30.26
2017-09-01T04:05:48.513Z,30.26
2017-09-01T04:08:18.907Z,30.26
2017-09-01T04:10:49.309Z,30.26
2017-09-01T04:13:19.713Z,30.27
2017-09-01T04:15:50.012Z,30.25
2017-09-01T04:18:20.595Z,30.27
2017-09-01T04:20:50.673Z,30.27
2017-09-01T04:23:20.556Z,30.17
2017-09-01T04:25:51.927Z,30.11
2017-09-01T04:28:21.982Z,30.28
2017-09-01T04:31:03.272Z,30.27
2017-09-01T04:33:53.228Z,30.24
2017-09-01T04:36:39.944Z,30.24
2017-09-01T04:39:12.000Z,30.23
2017-09-01T04:41:42.164Z,30.24
2017-09-01T04:44:12.732Z,30.25
2017-09-01T04:46:43.273Z,30.24
2017-09-01T04:49:13.309Z,30.23
2017-09-01T04:51:43.576Z,30.18
2017-09-01T04:54:14.202Z,30.26
2017-09-01T04:56:44.339Z,30.27
2017-09-01T04:59:14.455Z,30.28
2017-09-01T05:01:45.401Z,30.27
2017-09-01T05:04:15.613Z,30.27
2017-09-01T05:06:45.845Z,30.26
2017-09-01T05:09:17.687Z,30.17
2017-09-01T05:11:48.321Z,30.27
2017-09-01T05:14:19.006Z,30.27
2017-09-01T05:16:49.804Z,30.28
2017-09-01T05:19:20.592Z,30.11
2017-09-01T05:21:50.453Z,30.30
2017-09-01T05:24:21.942Z,29.80
2017-09-01T05:26:54.497Z,30.33
2017-09-01T05:29:24.619Z,30.33
2017-09-01T05:31:54.574Z,30.34
2017-09-01T05:34:24.386Z,30.04
2017-09-01T05:36:55.033Z,30.35
2017-09-01T05:39:25.120Z,30.36
2017-09-01T05:41:55.151Z,30.35
2017-09-01T05:44:25.396Z,30.33
2017-09-01T05:46:56.098Z,30.34
2017-09-01T05:49:27.883Z,30.34
2017-09-01T05:52:01.692Z,30.33
2017-09-01T05:54:35.530Z,30.06
2017-09-01T05:57:07.313Z,30.32
2017-09-01T05:59:44.053Z,30.28
2017-09-01T06:02:15.591Z,30.24
2017-09-01T06:04:50.061Z,30.09
2017-09-01T06:07:23.689Z,30.11
2017-09-01T06:09:59.685Z,30.06
2017-09-01T06:12:30.718Z,30.13
2017-09-01T06:15:01.705Z,30.12
2017-09-01T06:17:32.075Z,30.10
2017-09-01T06:20:03.552Z,30.08
2017-09-01T06:22:34.250Z,30.07
2017-09-01T06:25:05.122Z,30.04
2017-09-01T06:27:36.328Z,30.02
2017-09-01T06:30:15.197Z,29.82
2017-09-01T06:32:49.807Z,29.97
2017-09-01T06:35:21.769Z,29.78
2017-09-01T06:37:55.895Z,29.94
2017-09-01T06:40:28.419Z,29.94
2017-09-01T06:43:02.836Z,29.95
2017-09-01T06:45:39.582Z,29.95
2017-09-01T06:48:10.693Z,29.96
2017-09-01T06:50:45.661Z,29.97
2017-09-01T06:53:22.055Z,29.93
2017-09-01T06:55:53.914Z,29.94
2017-09-01T06:58:25.388Z,29.92
2017-09-01T07:00:56.273Z,29.75
2017-09-01T07:03:28.569Z,30.03
2017-09-01T07:06:00.990Z,30.05
2017-09-01T07:08:31.036Z,30.01
2017-09-01T07:11:02.211Z,30.11
2017-09-01T07:13:32.496Z,30.12
2017-09-01T07:16:02.637Z,30.14
2017-09-01T07:18:32.944Z,30.06
2017-09-01T07:21:06.995Z,30.15
2017-09-01T07:23:37.920Z,30.15
2017-09-01T07:26:08.252Z,30.17
2017-09-01T07:28:39.321Z,30.08
2017-09-01T07:31:12.622Z,30.10
2017-09-01T07:35:10.203Z,30.19
2017-09-01T07:37:42.904Z,29.96
2017-09-01T07:40:14.622Z,30.00
2017-09-01T07:42:50.596Z,30.12
2017-09-01T07:45:22.872Z,30.16
2017-09-01T07:47:54.088Z,30.18
2017-09-01T07:50:25.390Z,29.99
2017-09-01T07:52:59.152Z,30.20
2017-09-01T07:55:32.089Z,30.20
2017-09-01T07:58:10.317Z,30.20
2017-09-01T08:00:45.030Z,30.12
2017-09-01T08:03:19.878Z,30.24
2017-09-01T08:05:54.332Z,30.26
2017-09-01T08:08:28.459Z,30.27
2017-09-01T08:10:59.931Z,30.23
2017-09-01T08:13:31.376Z,30.21
2017-09-01T08:16:03.219Z,30.20
2017-09-01T08:18:33.476Z,30.18
2017-09-01T08:21:07.489Z,30.17
2017-09-01T08:23:38.036Z,30.14
2017-09-01T08:26:08.736Z,30.12
2017-09-01T08:28:41.568Z,30.12
2017-09-01T08:31:12.657Z,29.84
2017-09-01T08:33:53.975Z,29.93
2017-09-01T08:36:25.575Z,30.05
2017-09-01T08:38:57.915Z,30.03
2017-09-01T08:41:29.379Z,30.03
2017-09-01T08:44:02.933Z,30.01
2017-09-01T08:46:36.156Z,30.00
2017-09-01T08:49:08.598Z,29.99
2017-09-01T08:51:41.473Z,30.00
2017-09-01T08:54:12.168Z,29.97
2017-09-01T08:56:51.298Z,29.97
2017-09-01T08:59:23.151Z,29.96
2017-09-01T09:01:54.044Z,29.95
2017-09-01T09:04:24.810Z,29.99
2017-09-01T09:06:57.858Z,30.02
2017-09-01T09:09:30.267Z,30.05
2017-09-01T09:12:00.663Z,30.06
2017-09-01T09:14:33.072Z,30.08
2017-09-01T09:17:02.964Z,30.10
2017-09-01T09:19:34.799Z,30.12
2017-09-01T09:22:04.645Z,30.11
2017-09-01T09:24:35.664Z,30.13
2017-09-01T09:27:05.763Z,29.71
2017-09-01T09:29:36.331Z,30.17
2017-09-01T09:32:07.314Z,30.01
2017-09-01T09:34:38.092Z,30.10
2017-09-01T09:37:09.510Z,30.19
2017-09-01T09:39:39.484Z,30.20
2017-09-01T09:42:11.953Z,30.11
2017-09-01T09:44:46.293Z,30.21
2017-09-01T09:47:16.565Z,30.21
2017-09-01T09:49:46.334Z,30.22
2017-09-01T09:52:16.186Z,30.21
2017-09-01T09:54:46.471Z,30.22
2017-09-01T09:57:16.364Z,30.03
2017-09-01T09:59:46.165Z,29.79
2017-09-01T10:02:16.123Z,30.23
2017-09-01T10:04:46.255Z,29.97
2017-09-01T10:07:16.112Z,30.22
2017-09-01T10:09:46.363Z,30.23
2017-09-01T10:12:16.782Z,30.07
2017-09-01T10:14:46.943Z,30.24
2017-09-01T10:17:17.434Z,30.26
2017-09-01T10:19:47.576Z,30.27
2017-09-01T10:22:17.784Z,30.28
2017-09-01T10:24:48.216Z,29.86
2017-09-01T10:27:20.466Z,30.26
2017-09-01T10:29:51.159Z,30.25
2017-09-01T10:32:21.346Z,30.16
2017-09-01T10:34:52.359Z,30.24
2017-09-01T10:37:23.064Z,30.25
2017-09-01T10:39:53.452Z,30.24
2017-09-01T10:42:32.180Z,30.24
2017-09-01T10:45:04.331Z,30.24
2017-09-01T10:47:42.747Z,30.22
2017-09-01T10:50:23.827Z,30.13
2017-09-01T10:56:13.869Z,30.22
2017-09-01T10:58:44.996Z,30.20
2017-09-01T11:01:16.634Z,30.20
2017-09-01T11:03:48.265Z,30.20
2017-09-01T11:06:19.190Z,30.19
2017-09-01T11:08:49.251Z,30.12
2017-09-01T11:14:11.101Z,30.26
2017-09-01T11:16:41.942Z,29.84
2017-09-01T11:19:18.681Z,30.30
2017-09-01T11:23:58.175Z,30.31
2017-09-01T11:26:31.588Z,30.31
2017-09-01T11:29:19.314Z,30.22
2017-09-01T11:31:57.120Z,30.31
2017-09-01T11:34:37.331Z,30.05
2017-09-01T11:37:09.724Z,30.03
2017-09-01T11:39:40.919Z,30.29
2017-09-01T11:42:12.924Z,30.28
2017-09-01T11:44:44.491Z,30.19
2017-09-01T11:47:14.664Z,30.01
2017-09-01T11:49:45.154Z,30.28
2017-09-01T11:52:22.325Z,30.28
2017-09-01T11:54:52.696Z,30.19
2017-09-01T11:57:22.674Z,30.27
2017-09-01T11:59:53.103Z,30.00
2017-09-01T12:02:23.807Z,30.27
2017-09-01T12:04:54.698Z,30.19
2017-09-01T12:07:24.683Z,30.12
2017-09-01T12:09:54.456Z,30.28
2017-09-01T12:12:27.316Z,30.29
2017-09-01T12:14:57.335Z,30.29
2017-09-01T12:17:28.708Z,30.28
2017-09-01T12:19:59.034Z,30.29
2017-09-01T12:22:30.393Z,30.28
2017-09-01T12:25:00.350Z,30.29
2017-09-01T12:27:30.946Z,30.30
2017-09-01T12:30:04.237Z,30.21
2017-09-01T12:32:36.208Z,30.32
2017-09-01T12:35:13.487Z,30.30
2017-09-01T12:37:43.669Z,30.34
2017-09-01T12:40:14.876Z,30.34
2017-09-01T12:42:53.342Z,30.32
2017-09-01T12:45:23.685Z,30.32
2017-09-01T12:48:00.997Z,30.32
2017-09-01T12:50:44.349Z,30.32
2017-09-01T12:53:17.288Z,30.13
2017-09-01T12:55:48.196Z,30.30
2017-09-01T12:58:19.242Z,30.29
2017-09-01T13:00:50.630Z,30.28
2017-09-01T13:03:20.501Z,30.28
2017-09-01T13:05:51.758Z,30.20
2017-09-01T13:08:21.608Z,30.19
2017-09-01T13:10:51.458Z,30.29
2017-09-01T13:13:21.516Z,30.29
2017-09-01T13:15:51.916Z,30.29
2017-09-01T13:18:24.274Z,30.29
2017-09-01T13:20:55.834Z,30.29
2017-09-01T13:23:26.829Z,30.29
2017-09-01T13:25:56.726Z,30.28
2017-09-01T13:28:27.751Z,30.18
2017-09-01T13:30:59.151Z,30.13
2017-09-01T13:33:30.059Z,30.29
2017-09-01T13:36:01.106Z,30.29
2017-09-01T13:38:33.504Z,30.29
2017-09-01T13:41:05.500Z,30.20
2017-09-01T13:43:38.248Z,30.30
2017-09-01T13:46:08.591Z,30.31
2017-09-01T13:48:38.875Z,30.31
2017-09-01T13:51:09.126Z,30.30
2017-09-01T13:53:39.315Z,30.29
2017-09-01T13:56:09.491Z,30.29
2017-09-01T13:58:41.214Z,30.11
2017-09-01T14:01:11.762Z,30.29
2017-09-01T14:03:43.072Z,30.29
2017-09-01T14:06:13.042Z,30.22
2017-09-01T14:08:44.172Z,30.29
2017-09-01T14:11:14.662Z,30.20
2017-09-01T14:13:46.248Z,30.20
2017-09-01T14:16:17.470Z,30.30
2017-09-01T14:18:48.420Z,30.30
2017-09-01T14:21:20.420Z,30.30
2017-09-01T14:23:51.406Z,30.30
2017-09-01T14:26:23.122Z,30.31
2017-09-01T14:28:54.358Z,30.31
2017-09-01T14:31:26.549Z,30.23
2017-09-01T14:33:56.934Z,30.31
2017-09-01T14:36:27.403Z,29.97
2017-09-01T14:38:57.582Z,30.32
2017-09-01T14:41:27.969Z,30.25
2017-09-01T14:43:59.255Z,30.23
2017-09-01T14:46:29.927Z,30.05
2017-09-01T14:49:01.466Z,30.32
2017-09-01T14:51:34.334Z,30.34
2017-09-01T14:54:08.377Z,30.17
2017-09-01T14:56:41.226Z,30.27
2017-09-01T14:59:11.923Z,30.35
2017-09-01T15:01:45.055Z,30.34
2017-09-01T15:04:18.666Z,30.33
2017-09-01T15:06:54.446Z,30.23
2017-09-01T15:09:25.438Z,30.31
2017-09-01T15:11:55.928Z,30.31
2017-09-01T15:14:25.687Z,30.23
2017-09-01T15:16:55.824Z,30.30
2017-09-01T15:19:25.977Z,30.21
2017-09-01T15:21:56.025Z,30.31
2017-09-01T15:24:27.712Z,30.31
2017-09-01T15:27:03.130Z,30.22
2017-09-01T15:29:36.663Z,30.31
2017-09-01T15:32:21.759Z,30.07
2017-09-01T15:35:04.198Z,30.33
2017-09-01T15:37:36.282Z,30.22
2017-09-01T15:40:08.059Z,30.32
2017-09-01T15:42:38.894Z,30.30
2017-09-01T15:45:12.623Z,30.30
2017-09-01T15:47:46.846Z,30.04
2017-09-01T15:50:18.420Z,30.30
2017-09-01T15:52:48.371Z,30.30
2017-09-01T15:55:19.508Z,30.30
2017-09-01T15:57:53.535Z,30.30
2017-09-01T16:00:27.305Z,30.29
2017-09-01T16:03:03.562Z,30.30
2017-09-01T16:05:33.324Z,30.20
2017-09-01T16:08:03.538Z,30.29
2017-09-01T16:10:33.902Z,30.29
2017-09-01T16:13:04.899Z,30.29
2017-09-01T16:15:37.853Z,30.21
2017-09-01T16:18:09.441Z,30.29
2017-09-01T16:20:55.475Z,29.95
2017-09-01T16:23:25.573Z,30.36
2017-09-01T16:25:56.201Z,30.36
2017-09-01T16:28:26.430Z,30.25
2017-09-01T16:30:57.461Z,30.23
2017-09-01T16:33:31.020Z,30.32
2017-09-01T16:36:01.281Z,30.31
2017-09-01T16:38:31.867Z,30.30
2017-09-01T16:41:01.718Z,30.30
2017-09-01T16:43:33.470Z,30.21
2017-09-01T16:46:03.220Z,30.30
2017-09-01T16:48:33.595Z,30.29
2017-09-01T16:51:04.035Z,30.29
2017-09-01T16:53:35.269Z,30.29
2017-09-01T16:56:06.538Z,30.29
2017-09-01T16:58:37.093Z,30.22
2017-09-01T17:01:07.803Z,30.21
2017-09-01T17:03:37.752Z,30.29
2017-09-01T17:06:08.335Z,30.30
2017-09-01T17:08:40.637Z,29.77
2017-09-01T17:11:11.826Z,30.32
2017-09-01T17:13:42.405Z,30.32
2017-09-01T17:16:12.442Z,30.30
2017-09-01T17:18:42.522Z,30.30
2017-09-01T17:21:12.287Z,30.29
2017-09-01T17:23:42.219Z,30.29
2017-09-01T17:26:14.039Z,30.29
2017-09-01T17:28:43.744Z,30.28
2017-09-01T17:31:15.252Z,30.28
2017-09-01T17:33:45.821Z,30.27
2017-09-01T17:36:16.838Z,29.31
2017-09-01T17:38:46.716Z,30.18
2017-09-01T17:41:18.936Z,30.27
2017-09-01T17:43:48.963Z,30.26
2017-09-01T17:46:19.925Z,30.25
2017-09-01T17:48:51.351Z,30.22
2017-09-01T17:51:21.596Z,30.19
2017-09-01T17:53:53.986Z,30.16
2017-09-01T17:59:55.216Z,30.15
2017-09-01T18:02:34.497Z,30.15
2017-09-01T18:05:05.263Z,30.17
2017-09-01T18:07:36.554Z,30.00
2017-09-01T18:10:11.218Z,30.03
2017-09-01T18:12:41.346Z,29.97
2017-09-01T18:15:11.840Z,29.93
2017-09-01T18:17:41.975Z,29.93
2017-09-01T18:20:11.794Z,29.90
2017-09-01T18:22:42.352Z,29.77
2017-09-01T18:25:13.214Z,29.56
2017-09-01T18:27:43.104Z,29.79
2017-09-01T18:30:14.914Z,29.67
2017-09-01T18:32:45.827Z,29.74
2017-09-01T18:35:16.000Z,29.74
2017-09-01T18:37:46.311Z,29.74
2017-09-01T18:40:16.153Z,29.75
2017-09-01T18:42:47.566Z,29.77
2017-09-01T18:45:18.085Z,29.76
2017-09-01T18:47:48.088Z,29.73
2017-09-01T18:50:19.887Z,29.58
2017-09-01T18:52:50.098Z,29.75
2017-09-01T18:55:21.085Z,29.78
2017-09-01T18:57:52.709Z,29.71
2017-09-01T19:00:25.742Z,29.83
2017-09-01T19:02:55.929Z,29.87
2017-09-01T19:05:25.777Z,29.90
2017-09-01T19:07:55.896Z,29.91
2017-09-01T19:10:29.622Z,29.18
2017-09-01T19:12:59.482Z,29.96
2017-09-01T19:15:31.629Z,29.79
2017-09-01T19:18:02.393Z,29.97
2017-09-01T19:20:33.383Z,29.97
2017-09-01T19:23:06.346Z,29.99
2017-09-01T19:25:36.835Z,29.99
2017-09-01T19:28:07.824Z,30.01
2017-09-01T19:30:39.309Z,30.01
2017-09-01T19:33:09.370Z,30.00
2017-09-01T19:35:41.214Z,29.84
2017-09-01T19:38:11.103Z,29.91
2017-09-01T19:40:41.270Z,29.99
2017-09-01T19:43:11.435Z,29.99
2017-09-01T19:45:41.887Z,29.98
2017-09-01T19:48:12.641Z,29.98
2017-09-01T19:50:43.729Z,29.98
2017-09-01T19:53:16.048Z,30.00
2017-09-01T19:55:46.784Z,30.00
2017-09-01T19:58:18.018Z,29.91
2017-09-01T20:01:00.654Z,29.86
2017-09-01T20:03:31.940Z,30.07
2017-09-01T20:06:02.488Z,29.95
2017-09-01T20:08:33.836Z,30.02
2017-09-01T20:11:04.656Z,29.92
2017-09-01T20:13:35.233Z,30.00
2017-09-01T20:16:11.878Z,30.00
2017-09-01T20:18:42.718Z,29.99
2017-09-01T20:21:13.279Z,29.99
2017-09-01T20:23:43.926Z,29.99
2017-09-01T20:26:14.635Z,29.99
2017-09-01T20:28:44.667Z,29.99
2017-09-01T20:31:16.100Z,29.60
2017-09-01T20:33:46.238Z,29.98
2017-09-01T20:36:16.427Z,29.99
2017-09-01T20:38:46.199Z,29.99
2017-09-01T20:41:17.301Z,30.00
2017-09-01T20:43:47.167Z,30.00
2017-09-01T20:46:18.148Z,29.81
2017-09-01T20:48:48.727Z,29.37
2017-09-01T20:51:19.527Z,28.91
2017-09-01T20:53:51.164Z,28.52
2017-09-01T20:56:22.029Z,28.17
2017-09-01T20:58:52.950Z,27.86
2017-09-01T21:01:23.280Z,27.57
2017-09-01T21:03:55.232Z,27.35
2017-09-01T21:06:26.562Z,27.02
2017-09-01T21:08:57.024Z,26.94
2017-09-01T21:11:27.591Z,26.79
2017-09-01T21:13:57.391Z,26.66
2017-09-01T21:16:28.383Z,26.53
2017-09-01T21:18:59.035Z,26.43
2017-09-01T21:21:31.414Z,26.34
